Time;durP1;ratioP1;P1;durP2;ratioP2;P2;SDS_P1;SDS_P2;PMS_P1;PMS_P2;Temp;Humidity;BMP_temperature;BMP_pressure;BME280_temperature;BME280_humidity;BME280_pressure;Samples;Min_cycle;Max_cycle;Signal;HPM_P1;HPM_P2
2023/03/01 12:53:48;;;;;;;17.90;8.60;;;;;;;1.84;100.00;101236.83;102951;1291;600092;-90
2023/03/01 12:56:38;;;;;;;18.90;10.20;;;;;;;2.05;100.00;101229.98;105627;1265;61303;-90
2023/03/01 12:59:31;;;;;;;18.80;8.70;;;;;;;2.33;100.00;101232.80;105549;1266;60770;-90
2023/03/01 13:03:14;;;;;;;21.60;10.70;;;;;;;2.54;100.00;101234.55;105928;1262;73746;-81
2023/03/01 13:06:40;;;;;;;20.00;10.50;;;;;;;2.61;100.00;101236.64;105908;1260;67478;-81
2023/03/01 13:09:35;;;;;;;20.70;8.90;;;;;;;2.76;100.00;101240.66;105959;1257;72423;-91
2023/03/01 13:13:00;;;;;;;20.70;10.20;;;;;;;2.78;100.00;101241.25;106085;1257;60172;-90
2023/03/01 13:15:53;;;;;;;17.50;9.70;;;;;;;2.81;100.00;101241.02;106129;1256;61467;-90
2023/03/01 13:18:43;;;;;;;20.40;12.10;;;;;;;2.82;100.00;101241.70;106210;1259;72435;-90
2023/03/01 13:21:32;;;;;;;14.00;7.20;;;;;;;2.84;100.00;101235.79;106129;1256;69710;-82
2023/03/01 13:24:41;;;;;;;16.00;9.90;;;;;;;2.90;100.00;101235.95;106043;1257;72684;-81
2023/03/01 13:27:32;;;;;;;15.90;7.80;;;;;;;2.90;100.00;101241.40;106383;1256;61736;-82
2023/03/01 13:30:33;;;;;;;13.90;7.50;;;;;;;2.92;100.00;101240.65;106110;1256;60041;-90
2023/03/01 13:33:34;;;;;;;14.40;7.50;;;;;;;2.90;100.00;101244.09;106165;1256;72874;-91
2023/03/01 13:36:29;;;;;;;15.20;8.10;;;;;;;2.80;100.00;101242.61;106072;1257;70021;-90
2023/03/01 13:39:38;;;;;;;15.50;7.40;;;;;;;2.73;100.00;101245.55;105969;1256;72935;-89
2023/03/01 13:42:32;;;;;;;15.10;7.40;;;;;;;2.69;100.00;101242.65;106019;1260;59743;-81
2023/03/01 13:45:30;;;;;;;15.30;7.70;;;;;;;2.65;100.00;101239.42;106098;1256;61253;-83
2023/03/01 13:48:27;;;;;;;14.30;7.30;;;;;;;2.62;100.00;101238.63;106126;1258;73248;-91
2023/03/01 13:51:21;;;;;;;14.80;6.90;;;;;;;2.55;100.00;101239.25;106024;1257;68950;-83
2023/03/01 13:54:11;;;;;;;14.80;6.90;;;;;;;2.57;100.00;101238.34;106049;1257;71964;-81
2023/03/01 13:57:03;;;;;;;20.50;8.90;;;;;;;2.59;100.00;101239.48;106089;1257;60868;-81
2023/03/01 13:59:52;;;;;;;22.00;10.20;;;;;;;2.57;100.00;101238.71;106130;1255;60087;-91
2023/03/01 14:02:43;;;;;;;11.10;6.70;;;;;;;2.56;100.00;101241.36;106200;1260;73719;-91
2023/03/01 14:05:33;;;;;;;13.20;7.30;;;;;;;2.52;100.00;101237.87;106088;1260;69554;-91
2023/03/01 14:08:27;;;;;;;10.80;6.20;;;;;;;2.50;100.00;101242.02;106068;1257;72986;-81
2023/03/01 14:11:22;;;;;;;17.00;7.60;;;;;;;2.40;100.00;101240.90;106182;1258;59946;-81
2023/03/01 14:14:52;;;;;;;15.10;6.70;;;;;;;2.39;100.00;101241.68;106052;1257;60815;-82
2023/03/01 14:17:43;;;;;;;14.10;7.00;;;;;;;2.39;100.00;101240.35;106149;1257;74205;-90
2023/03/01 14:20:47;;;;;;;14.00;7.00;;;;;;;2.43;100.00;101240.02;106128;1258;69253;-81
2023/03/01 14:23:38;;;;;;;15.60;7.40;;;;;;;2.48;100.00;101246.26;106082;1257;74889;-91
2023/03/01 14:26:27;;;;;;;17.10;7.90;;;;;;;2.48;100.00;101246.96;105988;1256;59595;-81
2023/03/01 14:29:25;;;;;;;15.40;7.80;;;;;;;2.44;100.00;101245.88;106067;1257;59354;-91
2023/03/01 14:32:23;;;;;;;14.70;7.90;;;;;;;2.42;100.00;101250.02;106128;1257;73970;-81
2023/03/01 14:35:20;;;;;;;13.30;6.70;;;;;;;2.47;100.00;101245.08;106329;1257;68608;-82
2023/03/01 14:38:21;;;;;;;20.60;8.20;;;;;;;2.48;100.00;101244.42;106113;1258;73408;-90
2023/03/01 14:41:15;;;;;;;19.80;8.80;;;;;;;2.45;100.00;101247.17;106098;1256;61084;-90
2023/03/01 14:44:07;;;;;;;15.10;6.40;;;;;;;2.45;100.00;101247.88;105986;1260;60767;-91
2023/03/01 14:47:01;;;;;;;14.40;7.70;;;;;;;2.44;100.00;101242.97;106116;1259;73362;-91
2023/03/01 14:49:53;;;;;;;12.90;6.90;;;;;;;2.42;100.00;101242.85;106113;1258;68768;-90
2023/03/01 14:52:44;;;;;;;12.90;6.90;;;;;;;2.43;100.00;101242.02;106138;1260;72658;-81
2023/03/01 14:55:40;;;;;;;15.10;7.60;;;;;;;2.42;100.00;101243.21;106190;1257;59935;-90
2023/03/01 14:58:32;;;;;;;22.80;9.80;;;;;;;2.38;100.00;101242.18;106216;1256;60427;-81
2023/03/01 15:01:21;;;;;;;25.60;9.90;;;;;;;2.37;100.00;101240.67;106100;1260;74231;-91
2023/03/01 15:04:12;;;;;;;21.90;9.40;;;;;;;2.36;100.00;101240.98;106091;1257;69648;-82
2023/03/01 15:07:04;;;;;;;18.20;8.20;;;;;;;2.27;100.00;101244.16;106180;1256;73842;-91
2023/03/01 15:09:54;;;;;;;15.40;7.20;;;;;;;2.24;100.00;101243.69;106206;1256;61492;-91
2023/03/01 15:12:43;;;;;;;15.50;7.50;;;;;;;2.26;100.00;101243.54;106127;1258;61310;-90
2023/03/01 15:15:38;;;;;;;18.20;7.20;;;;;;;2.29;100.00;101243.95;106198;1260;74235;-81
2023/03/01 15:18:35;;;;;;;17.80;7.60;;;;;;;2.29;100.00;101248.77;105923;1257;69974;-81
2023/03/01 15:21:30;;;;;;;15.30;7.50;;;;;;;2.30;100.00;101251.59;105973;1258;71880;-81
2023/03/01 15:24:24;;;;;;;16.40;7.60;;;;;;;2.18;100.00;101251.20;106080;1260;60488;-91
2023/03/01 15:27:18;;;;;;;16.20;7.10;;;;;;;2.08;100.00;101252.50;106286;1260;59583;-81
2023/03/01 15:30:17;;;;;;;15.00;7.30;;;;;;;2.06;100.00;101260.67;106036;1255;73222;-81
2023/03/01 15:33:20;;;;;;;13.30;6.70;;;;;;;2.08;100.00;101262.50;106491;1256;68803;-83
2023/03/01 15:36:45;;;;;;;14.80;7.80;;;;;;;2.10;100.00;101266.16;106436;1251;73111;-81
2023/03/01 15:39:39;;;;;;;17.00;7.90;;;;;;;2.10;100.00;101267.52;106530;1256;59878;-82
2023/03/01 15:42:28;;;;;;;14.90;7.70;;;;;;;2.09;100.00;101267.19;106546;1251;61642;-81
2023/03/01 15:45:23;;;;;;;20.70;9.00;;;;;;;2.12;100.00;101267.73;106549;1254;73021;-92
2023/03/01 15:48:17;;;;;;;16.80;8.80;;;;;;;2.07;100.00;101271.13;106547;1251;68874;-81
2023/03/01 15:51:10;;;;;;;16.90;8.40;;;;;;;2.04;100.00;101272.57;106533;1256;72701;-81
2023/03/01 15:54:21;;;;;;;19.40;8.20;;;;;;;2.05;100.00;101272.82;106360;1251;59755;-91
2023/03/01 15:57:13;;;;;;;19.00;9.10;;;;;;;2.01;100.00;101270.44;106520;1256;60299;-81
2023/03/01 16:00:11;;;;;;;20.30;8.20;;;;;;;2.05;100.00;101269.25;106490;1251;72423;-90
2023/03/01 16:03:00;;;;;;;18.70;8.60;;;;;;;2.07;100.00;101273.94;106554;1251;69152;-90
2023/03/01 16:05:50;;;;;;;18.30;8.60;;;;;;;2.06;100.00;101272.07;106517;1255;72180;-81
2023/03/01 16:08:40;;;;;;;16.80;8.30;;;;;;;2.01;100.00;101277.65;106516;1250;59534;-81
2023/03/01 16:11:32;;;;;;;20.40;9.20;;;;;;;2.03;100.00;101280.85;106529;1251;61575;-90
2023/03/01 16:14:21;;;;;;;18.20;8.40;;;;;;;2.01;100.00;101280.72;106530;1255;73052;-91
2023/03/01 16:17:11;;;;;;;34.80;13.00;;;;;;;2.00;100.00;101282.63;106590;1255;67744;-92
2023/03/01 16:19:59;;;;;;;56.90;21.90;;;;;;;1.99;100.00;101282.17;106614;1251;73539;-91
2023/03/01 16:22:49;;;;;;;75.60;32.30;;;;;;;1.98;100.00;101283.62;106531;1251;59659;-81
2023/03/01 16:25:39;;;;;;;24.80;14.50;;;;;;;1.97;100.00;101285.69;106449;1251;59724;-81
2023/03/01 16:28:29;;;;;;;26.00;14.50;;;;;;;1.94;100.00;101286.88;106493;1252;72169;-90
2023/03/01 16:31:19;;;;;;;64.30;33.10;;;;;;;1.93;100.00;101284.80;106568;1256;69624;-81
2023/03/01 16:34:12;;;;;;;21.20;11.90;;;;;;;1.91;100.00;101288.31;106591;1257;73057;-81
2023/03/01 16:37:02;;;;;;;17.10;8.80;;;;;;;1.84;100.00;101290.06;106550;1251;59711;-81
2023/03/01 16:39:52;;;;;;;16.40;8.90;;;;;;;1.80;100.00;101287.06;106447;1251;59859;-81
2023/03/01 16:42:42;;;;;;;23.30;11.70;;;;;;;1.71;100.00;101291.23;106546;1251;74032;-81
2023/03/01 16:45:36;;;;;;;16.90;7.80;;;;;;;1.65;100.00;101298.83;106521;1251;69225;-91
2023/03/01 16:48:26;;;;;;;45.30;18.40;;;;;;;1.63;100.00;101297.56;106551;1256;74356;-81
2023/03/01 16:51:20;;;;;;;20.40;9.40;;;;;;;1.61;100.00;101299.08;106441;1253;59583;-91
2023/03/01 16:54:10;;;;;;;21.80;9.50;;;;;;;1.63;100.00;101300.73;106593;1253;60544;-90
2023/03/01 16:57:00;;;;;;;21.00;10.60;;;;;;;1.65;100.00;101304.77;106322;1255;73422;-91
2023/03/01 16:59:53;;;;;;;18.10;8.30;;;;;;;1.67;100.00;101306.66;106540;1256;68372;-81
2023/03/01 17:02:44;;;;;;;22.00;10.30;;;;;;;1.66;100.00;101307.70;106537;1251;72594;-81
2023/03/01 17:05:34;;;;;;;23.40;10.70;;;;;;;1.67;100.00;101303.64;106589;1256;59710;-89
2023/03/01 17:08:24;;;;;;;21.20;9.10;;;;;;;1.70;100.00;101300.41;106552;1250;59671;-81
2023/03/01 17:11:16;;;;;;;15.20;7.60;;;;;;;1.73;100.00;101295.38;106598;1251;73518;-90
2023/03/01 17:14:05;;;;;;;17.00;7.80;;;;;;;1.73;100.00;101295.29;106544;1251;69419;-91
2023/03/01 17:16:54;;;;;;;20.30;9.20;;;;;;;1.73;100.00;101293.55;106611;1252;73611;-91
2023/03/01 17:19:43;;;;;;;17.90;8.20;;;;;;;1.70;100.00;101293.09;106440;1256;59691;-91
2023/03/01 17:22:33;;;;;;;18.40;9.30;;;;;;;1.73;100.00;101295.05;106524;1251;61169;-90
2023/03/01 17:25:22;;;;;;;18.40;8.20;;;;;;;1.71;100.00;101293.63;106466;1252;74323;-81
2023/03/01 17:28:12;;;;;;;19.80;9.70;;;;;;;1.71;100.00;101293.62;106528;1254;69890;-91
2023/03/01 17:31:02;;;;;;;19.20;9.30;;;;;;;1.69;100.00;101293.46;106489;1256;73114;-89
2023/03/01 17:33:51;;;;;;;17.70;8.30;;;;;;;1.74;100.00;101294.92;106433;1251;59733;-92
2023/03/01 17:36:43;;;;;;;19.00;9.40;;;;;;;1.77;100.00;101295.10;106490;1253;59783;-90
2023/03/01 17:39:35;;;;;;;25.00;11.70;;;;;;;1.76;100.00;101289.21;106517;1256;72901;-90
2023/03/01 17:42:24;;;;;;;22.10;10.80;;;;;;;1.78;100.00;101292.13;106527;1256;67879;-91
2023/03/01 17:45:13;;;;;;;18.60;8.10;;;;;;;1.83;100.00;101298.20;106513;1256;72345;-89
2023/03/01 17:48:03;;;;;;;16.60;8.50;;;;;;;1.86;100.00;101295.64;106457;1252;60570;-82
2023/03/01 17:51:12;;;;;;;17.50;9.00;;;;;;;1.86;100.00;101294.02;106434;1252;61284;-90
2023/03/01 17:54:02;;;;;;;16.60;7.80;;;;;;;1.85;100.00;101292.52;106548;1254;73801;-81
2023/03/01 17:56:52;;;;;;;19.90;9.00;;;;;;;1.85;100.00;101299.03;106550;1255;69059;-91
2023/03/01 17:59:41;;;;;;;18.70;8.40;;;;;;;1.87;100.00;101298.71;106464;1256;72906;-90
2023/03/01 18:02:31;;;;;;;20.00;8.40;;;;;;;1.93;100.00;101297.58;106650;1257;60979;-81
2023/03/01 18:05:22;;;;;;;19.20;8.30;;;;;;;1.97;100.00;101294.11;106810;1257;61653;-81
2023/03/01 18:08:12;;;;;;;19.50;9.50;;;;;;;2.02;100.00;101294.58;106626;1251;74721;-81
2023/03/01 18:11:01;;;;;;;16.70;8.30;;;;;;;2.01;100.00;101295.41;106489;1256;68994;-90
2023/03/01 18:13:50;;;;;;;15.10;7.00;;;;;;;2.00;100.00;101298.76;106460;1256;71488;-80
2023/03/01 18:16:39;;;;;;;14.80;7.40;;;;;;;2.02;100.00;101298.89;106415;1256;60568;-91
2023/03/01 18:19:31;;;;;;;14.50;6.90;;;;;;;2.01;100.00;101295.73;106427;1255;60557;-89
2023/03/01 18:22:20;;;;;;;18.80;9.50;;;;;;;2.03;100.00;101297.55;106568;1256;73548;-90
2023/03/01 18:25:11;;;;;;;21.10;9.90;;;;;;;2.03;100.00;101302.30;106521;1256;69136;-80
2023/03/01 18:28:01;;;;;;;18.00;9.40;;;;;;;2.04;100.00;101305.79;106431;1254;73909;-89
2023/03/01 18:30:56;;;;;;;17.50;7.70;;;;;;;2.08;100.00;101307.05;106485;1256;61935;-81
2023/03/01 18:33:45;;;;;;;14.00;7.50;;;;;;;2.12;100.00;101312.77;106354;1254;61006;-81
2023/03/01 18:36:36;;;;;;;16.10;7.50;;;;;;;2.12;100.00;101317.02;106534;1256;73761;-81
2023/03/01 18:39:27;;;;;;;15.30;7.20;;;;;;;2.14;100.00;101323.77;106520;1251;69253;-89
2023/03/01 18:42:19;;;;;;;15.80;6.80;;;;;;;2.04;100.00;101323.38;106672;1252;73869;-90
2023/03/01 18:45:09;;;;;;;14.50;7.00;;;;;;;1.99;100.00;101324.81;106539;1256;60453;-80
2023/03/01 18:48:03;;;;;;;15.00;7.30;;;;;;;1.97;100.00;101322.76;106590;1253;61010;-81
2023/03/01 18:50:52;;;;;;;17.90;7.40;;;;;;;1.98;100.00;101325.91;106497;1257;75806;-91
2023/03/01 18:53:46;;;;;;;16.10;7.80;;;;;;;1.99;100.00;101331.44;106532;1256;69532;-80
2023/03/01 18:56:35;;;;;;;13.80;6.10;;;;;;;1.97;100.00;101331.59;106558;1256;72824;-80
2023/03/01 18:59:24;;;;;;;12.90;6.60;;;;;;;1.96;100.00;101331.47;106603;1256;60882;-89
2023/03/01 19:02:14;;;;;;;17.50;7.80;;;;;;;1.94;100.00;101334.56;106657;1256;60890;-90
2023/03/01 19:05:08;;;;;;;13.90;6.70;;;;;;;1.96;100.00;101334.77;106540;1256;73787;-89
2023/03/01 19:07:57;;;;;;;15.50;6.50;;;;;;;1.98;100.00;101330.90;106403;1251;69677;-90
2023/03/01 19:10:54;;;;;;;13.00;6.30;;;;;;;1.91;100.00;101336.83;106642;1256;73005;-90
2023/03/01 19:13:44;;;;;;;15.20;7.10;;;;;;;1.91;100.00;101340.20;106592;1256;62238;-89
2023/03/01 19:16:39;;;;;;;15.10;6.90;;;;;;;1.91;100.00;101339.29;106545;1257;61908;-91
2023/03/01 19:19:28;;;;;;;13.30;6.40;;;;;;;1.92;100.00;101345.50;106516;1256;74056;-91
2023/03/01 19:22:18;;;;;;;14.60;6.00;;;;;;;1.93;100.00;101347.13;106658;1251;69047;-90
2023/03/01 19:25:07;;;;;;;15.70;6.90;;;;;;;1.93;100.00;101351.08;106576;1251;73147;-88
2023/03/01 19:27:57;;;;;;;12.10;6.30;;;;;;;1.90;100.00;101348.07;106490;1252;60593;-92
2023/03/01 19:30:46;;;;;;;13.50;6.30;;;;;;;1.89;100.00;101350.52;106566;1253;60453;-90
2023/03/01 19:33:36;;;;;;;16.90;7.30;;;;;;;1.89;100.00;101351.09;106495;1251;72564;-90
2023/03/01 19:36:31;;;;;;;12.50;6.50;;;;;;;1.92;100.00;101352.44;106497;1252;69544;-90
2023/03/01 19:39:21;;;;;;;16.20;7.50;;;;;;;1.93;100.00;101352.60;106588;1251;73298;-89
2023/03/01 19:42:10;;;;;;;16.50;6.30;;;;;;;1.90;100.00;101351.10;106445;1256;60426;-90
2023/03/01 19:45:06;;;;;;;15.60;7.10;;;;;;;1.89;100.00;101354.48;106577;1255;60649;-90
2023/03/01 19:47:56;;;;;;;15.50;7.00;;;;;;;1.86;100.00;101357.54;106500;1251;72549;-90
2023/03/01 19:50:45;;;;;;;14.30;6.90;;;;;;;1.87;100.00;101358.76;106591;1251;69995;-90
2023/03/01 19:53:36;;;;;;;14.80;6.50;;;;;;;1.81;100.00;101353.63;106529;1257;73030;-91
2023/03/01 19:56:26;;;;;;;12.10;6.70;;;;;;;1.76;100.00;101351.16;106594;1251;61092;-90
2023/03/01 19:59:22;;;;;;;12.90;6.80;;;;;;;1.74;100.00;101351.48;106646;1251;60804;-90
2023/03/01 20:02:12;;;;;;;16.60;7.20;;;;;;;1.71;100.00;101352.86;106703;1251;73085;-90
2023/03/01 20:05:01;;;;;;;14.40;6.90;;;;;;;1.73;100.00;101353.33;106545;1251;69480;-91
2023/03/01 20:07:56;;;;;;;12.30;6.40;;;;;;;1.72;100.00;101354.57;106465;1251;73261;-91
2023/03/01 20:10:45;;;;;;;17.80;6.40;;;;;;;1.69;100.00;101353.27;106539;1257;60530;-90
2023/03/01 20:13:34;;;;;;;15.40;6.50;;;;;;;1.62;100.00;101357.78;106585;1257;61340;-89
2023/03/01 20:16:25;;;;;;;13.20;6.40;;;;;;;1.61;100.00;101356.30;106511;1251;74485;-90
2023/03/01 20:19:15;;;;;;;14.70;6.90;;;;;;;1.61;100.00;101351.66;106501;1251;67621;-90
2023/03/01 20:22:04;;;;;;;14.60;6.40;;;;;;;1.63;100.00;101346.15;106521;1251;72521;-90
2023/03/01 20:24:53;;;;;;;17.20;7.10;;;;;;;1.65;100.00;101346.95;106489;1251;61950;-90
2023/03/01 20:27:46;;;;;;;14.50;6.30;;;;;;;1.69;100.00;101343.44;106547;1252;60399;-92
2023/03/01 20:30:37;;;;;;;13.70;6.70;;;;;;;1.64;100.00;101350.71;106520;1255;75207;-90
2023/03/01 20:33:26;;;;;;;17.10;8.50;;;;;;;1.63;100.00;101352.69;106480;1251;69000;-90
2023/03/01 20:36:16;;;;;;;21.70;8.60;;;;;;;1.66;100.00;101354.13;106712;1251;73887;-90
2023/03/01 20:39:08;;;;;;;17.70;7.20;;;;;;;1.65;100.00;101359.05;106657;1252;60472;-89
2023/03/01 20:41:57;;;;;;;15.70;7.20;;;;;;;1.63;100.00;101362.90;106600;1251;60515;-91
2023/03/01 20:44:47;;;;;;;15.80;6.40;;;;;;;1.61;100.00;101370.64;106522;1251;74977;-91
2023/03/01 20:47:36;;;;;;;19.50;8.30;;;;;;;1.64;100.00;101373.38;106460;1252;69375;-90
2023/03/01 20:50:26;;;;;;;18.60;7.90;;;;;;;1.67;100.00;101376.77;106556;1251;71971;-90
2023/03/01 20:53:16;;;;;;;15.10;6.90;;;;;;;1.70;100.00;101377.98;106495;1251;60470;-89
2023/03/01 20:56:07;;;;;;;16.10;7.40;;;;;;;1.71;100.00;101373.17;106974;1250;60354;-91
2023/03/01 20:58:59;;;;;;;15.40;7.40;;;;;;;1.64;100.00;101369.41;106865;1256;74729;-91
2023/03/01 21:01:48;;;;;;;17.70;7.50;;;;;;;1.63;100.00;101369.89;106833;1256;70192;-89
2023/03/01 21:04:37;;;;;;;15.40;7.60;;;;;;;1.62;100.00;101374.54;106849;1251;71515;-90
2023/03/01 21:07:27;;;;;;;17.90;7.30;;;;;;;1.64;100.00;101371.39;106560;1257;60337;-88
2023/03/01 21:10:16;;;;;;;24.10;8.20;;;;;;;1.64;100.00;101368.48;106926;1251;60441;-81
2023/03/01 21:13:06;;;;;;;15.70;7.10;;;;;;;1.62;100.00;101369.35;106509;1256;73999;-91
2023/03/01 21:15:58;;;;;;;13.10;6.50;;;;;;;1.64;100.00;101368.70;106502;1251;67435;-90
2023/03/01 21:18:48;;;;;;;17.20;7.00;;;;;;;1.65;100.00;101363.86;106811;1251;74164;-91
2023/03/01 21:21:37;;;;;;;15.30;7.40;;;;;;;1.67;100.00;101365.32;106659;1251;60590;-87
2023/03/01 21:24:26;;;;;;;14.50;6.40;;;;;;;1.65;100.00;101368.91;106805;1251;60776;-90
2023/03/01 21:27:15;;;;;;;15.40;7.20;;;;;;;1.66;100.00;101367.71;106467;1256;74864;-91
2023/03/01 21:30:05;;;;;;;16.30;7.50;;;;;;;1.65;100.00;101359.96;107106;1251;68007;-81
2023/03/01 21:32:55;;;;;;;16.80;7.30;;;;;;;1.67;100.00;101354.70;106915;1251;73371;-82
2023/03/01 21:35:44;;;;;;;16.70;7.30;;;;;;;1.64;100.00;101359.88;106899;1251;61973;-90
2023/03/01 21:38:41;;;;;;;20.90;8.70;;;;;;;1.63;100.00;101356.81;107089;1251;60429;-90
2023/03/01 21:41:32;;;;;;;13.10;6.90;;;;;;;1.62;100.00;101360.56;106891;1251;74740;-90
2023/03/01 21:44:23;;;;;;;17.60;8.30;;;;;;;1.61;100.00;101359.44;106973;1256;69946;-82
2023/03/01 21:47:12;;;;;;;16.70;7.70;;;;;;;1.58;100.00;101355.08;106816;1251;72598;-82
2023/03/01 21:50:01;;;;;;;19.40;8.00;;;;;;;1.59;100.00;101358.94;106704;1251;59621;-81
2023/03/01 21:52:50;;;;;;;14.70;7.00;;;;;;;1.60;100.00;101362.95;106861;1251;60533;-90
2023/03/01 21:55:46;;;;;;;16.10;6.90;;;;;;;1.62;100.00;101366.83;106778;1254;73915;-82
2023/03/01 21:58:34;;;;;;;14.10;5.90;;;;;;;1.61;100.00;101362.14;107001;1251;69378;-82
2023/03/01 22:01:25;;;;;;;12.60;5.70;;;;;;;1.62;100.00;101360.55;106883;1251;73092;-81
2023/03/01 22:04:15;;;;;;;14.60;6.60;;;;;;;1.61;100.00;101355.96;106891;1256;60440;-82
2023/03/01 22:07:05;;;;;;;14.30;6.00;;;;;;;1.64;100.00;101352.17;107056;1251;60744;-81
2023/03/01 22:09:54;;;;;;;15.00;5.60;;;;;;;1.67;100.00;101356.23;106491;1256;74225;-81
2023/03/01 22:12:44;;;;;;;13.70;5.10;;;;;;;1.60;100.00;101356.95;106618;1251;69118;-81
2023/03/01 22:15:34;;;;;;;10.40;4.90;;;;;;;1.56;100.00;101356.59;106522;1256;73175;-81
2023/03/01 22:18:23;;;;;;;13.60;3.90;;;;;;;1.55;100.00;101351.40;106448;1255;61331;-82
2023/03/01 22:21:12;;;;;;;9.50;4.00;;;;;;;1.57;100.00;101349.71;106484;1251;60341;-90
2023/03/01 22:24:02;;;;;;;12.80;4.60;;;;;;;1.52;100.00;101352.83;106543;1250;74811;-90
2023/03/01 22:26:53;;;;;;;14.80;5.00;;;;;;;1.48;100.00;101356.42;106693;1251;69229;-82
2023/03/01 22:29:42;;;;;;;10.60;4.50;;;;;;;1.43;100.00;101359.70;106688;1253;70551;-91
2023/03/01 22:32:32;;;;;;;11.50;4.70;;;;;;;1.35;100.00;101365.20;106581;1251;61773;-81
2023/03/01 22:35:21;;;;;;;10.50;4.20;;;;;;;1.24;100.00;101371.69;106442;1251;60396;-89
2023/03/01 22:38:11;;;;;;;15.10;5.40;;;;;;;1.18;100.00;101367.25;106537;1256;74722;-81
2023/03/01 22:41:03;;;;;;;9.20;3.90;;;;;;;1.09;100.00;101371.03;106578;1253;70054;-90
2023/03/01 22:43:53;;;;;;;23.30;8.70;;;;;;;0.83;100.00;101368.20;106560;1251;72609;-82
2023/03/01 22:46:44;;;;;;;16.80;5.90;;;;;;;0.70;100.00;101364.27;106459;1251;62313;-82
2023/03/01 22:49:33;;;;;;;13.90;5.50;;;;;;;0.60;100.00;101364.62;106511;1251;60832;-89
2023/03/01 22:52:22;;;;;;;16.90;5.90;;;;;;;0.45;100.00;101364.58;106512;1251;73900;-90
2023/03/01 22:55:12;;;;;;;14.20;6.50;;;;;;;0.34;100.00;101366.65;106567;1256;68756;-81
2023/03/01 22:58:01;;;;;;;16.40;6.90;;;;;;;0.24;100.00;101370.34;106545;1257;73181;-89
2023/03/01 23:00:50;;;;;;;15.50;7.10;;;;;;;0.22;100.00;101375.08;106501;1251;62391;-81
2023/03/01 23:03:40;;;;;;;16.30;7.40;;;;;;;0.09;100.00;101373.30;106567;1257;61416;-81
2023/03/01 23:06:29;;;;;;;18.00;6.90;;;;;;;0.01;100.00;101376.96;106649;1251;75320;-90
2023/03/01 23:09:29;;;;;;;19.30;7.80;;;;;;;-0.07;100.00;101366.93;106893;1251;69346;-90
2023/03/01 23:12:18;;;;;;;20.00;9.60;;;;;;;-0.13;100.00;101367.14;106660;1251;73838;-89
2023/03/01 23:15:09;;;;;;;24.80;9.70;;;;;;;-0.17;100.00;101369.20;106562;1251;60510;-81
2023/03/01 23:17:58;;;;;;;22.70;11.50;;;;;;;-0.25;100.00;101365.61;106521;1251;61630;-89
2023/03/01 23:20:47;;;;;;;24.30;10.50;;;;;;;-0.34;100.00;101360.79;106563;1252;74556;-90
2023/03/01 23:23:37;;;;;;;26.30;9.80;;;;;;;-0.39;100.00;101355.96;106663;1251;69280;-81
2023/03/01 23:26:26;;;;;;;22.80;8.90;;;;;;;-0.44;100.00;101355.19;106485;1253;71418;-81
2023/03/01 23:29:16;;;;;;;21.60;9.30;;;;;;;-0.50;100.00;101358.08;106571;1251;60552;-90
2023/03/01 23:32:05;;;;;;;15.30;7.50;;;;;;;-0.70;100.00;101358.65;106614;1256;60434;-91
2023/03/01 23:34:54;;;;;;;16.10;8.20;;;;;;;-0.78;100.00;101360.46;106597;1251;74089;-81
2023/03/01 23:37:44;;;;;;;14.80;7.30;;;;;;;-0.82;100.00;101364.36;106484;1256;68661;-81
2023/03/01 23:40:33;;;;;;;18.80;7.50;;;;;;;-0.89;100.00;101364.83;106673;1251;71020;-81
2023/03/01 23:43:22;;;;;;;16.30;7.20;;;;;;;-0.91;100.00;101366.04;106699;1256;60530;-81
2023/03/01 23:46:13;;;;;;;16.20;7.20;;;;;;;-0.95;100.00;101366.36;106595;1251;61948;-81
2023/03/01 23:49:03;;;;;;;16.30;7.50;;;;;;;-0.96;100.00;101361.54;106577;1254;74508;-90
2023/03/01 23:51:52;;;;;;;17.20;6.60;;;;;;;-1.02;100.00;101357.09;106725;1251;69225;-81
2023/03/01 23:54:42;;;;;;;15.30;6.50;;;;;;;-1.01;100.00;101358.20;106427;1254;71694;-81
2023/03/01 23:57:33;;;;;;;10.80;5.10;;;;;;;-1.02;100.00;101355.23;106435;1256;60882;-89
